createdAt,value
2023-05-04T00:02:00.203Z,4.50
2023-05-04T00:04:01.991Z,4.43
2023-05-04T00:06:03.602Z,4.28
2023-05-04T00:08:05.419Z,4.43
2023-05-04T00:10:08.155Z,4.50
2023-05-04T00:12:11.035Z,4.13
2023-05-04T00:14:12.540Z,4.72
2023-05-04T00:16:14.078Z,4.97
2023-05-04T00:18:15.591Z,5.15
2023-05-04T00:20:17.111Z,5.05
2023-05-04T00:22:18.641Z,3.72
2023-05-04T00:24:20.212Z,4.68
2023-05-04T00:26:21.708Z,4.75
2023-05-04T00:28:23.264Z,4.03
2023-05-04T00:30:24.724Z,3.78
2023-05-04T00:32:27.250Z,3.70
2023-05-04T00:34:29.409Z,3.72
2023-05-04T00:36:30.905Z,3.05
2023-05-04T00:38:46.981Z,3.90
2023-05-04T00:40:49.014Z,4.95
2023-05-04T00:42:50.842Z,3.75
2023-05-04T00:44:52.335Z,5.22
2023-05-04T00:46:53.939Z,4.78
2023-05-04T00:48:55.713Z,5.20
2023-05-04T00:50:57.264Z,5.93
2023-05-04T00:53:00.156Z,4.53
2023-05-04T00:55:01.812Z,5.28
2023-05-04T00:57:03.526Z,5.07
2023-05-04T00:59:05.154Z,4.97
2023-05-04T01:01:06.714Z,5.55
2023-05-04T01:03:09.999Z,4.75
2023-05-04T01:05:14.655Z,5.47
2023-05-04T01:07:45.477Z,5.15
2023-05-04T01:09:50.839Z,5.47
2023-05-04T01:12:06.267Z,6.13
2023-05-04T01:14:09.450Z,4.97
2023-05-04T01:16:10.984Z,5.22
2023-05-04T01:18:12.828Z,4.38
2023-05-04T01:20:14.406Z,3.72
2023-05-04T01:22:16.015Z,4.07
2023-05-04T01:24:17.800Z,4.05
2023-05-04T01:26:24.646Z,3.95
2023-05-04T01:28:42.464Z,3.53
2023-05-04T01:30:45.765Z,3.65
2023-05-04T01:32:47.772Z,3.72
2023-05-04T01:34:49.327Z,4.30
2023-05-04T01:36:51.573Z,3.78
2023-05-04T01:38:57.843Z,3.97
2023-05-04T01:40:59.337Z,3.85
2023-05-04T01:43:00.952Z,4.47
2023-05-04T01:45:03.314Z,4.55
2023-05-04T01:47:04.939Z,4.63
2023-05-04T01:49:07.104Z,4.43
2023-05-04T01:51:08.653Z,4.05
2023-05-04T01:53:10.136Z,4.47
2023-05-04T01:55:11.740Z,4.60
2023-05-04T01:57:13.309Z,3.80
2023-05-04T01:59:15.866Z,3.75
2023-05-04T02:01:17.487Z,4.05
2023-05-04T02:03:19.188Z,4.47
2023-05-04T02:05:20.731Z,3.88
2023-05-04T02:07:22.230Z,3.00
2023-05-04T02:09:23.816Z,3.65
2023-05-04T02:11:25.747Z,4.10
2023-05-04T02:13:27.275Z,3.70
2023-05-04T02:15:28.844Z,3.88
2023-05-04T02:17:30.445Z,3.72
2023-05-04T02:19:31.950Z,4.50
2023-05-04T02:21:33.459Z,3.90
2023-05-04T02:23:34.992Z,3.80
2023-05-04T02:25:40.595Z,3.17
2023-05-04T02:27:42.665Z,3.65
2023-05-04T02:29:44.215Z,3.47
2023-05-04T02:31:45.719Z,4.13
2023-05-04T02:33:47.226Z,3.67
2023-05-04T02:35:48.702Z,4.70
2023-05-04T02:37:50.738Z,3.90
2023-05-04T02:39:52.274Z,3.88
2023-05-04T02:41:53.865Z,3.13
2023-05-04T02:43:55.414Z,3.65
2023-05-04T02:45:57.008Z,3.95
2023-05-04T02:47:58.594Z,4.15
2023-05-04T02:50:00.206Z,4.53
2023-05-04T02:52:01.828Z,4.47
2023-05-04T02:54:03.378Z,4.10
2023-05-04T02:56:05.227Z,4.38
2023-05-04T02:58:07.225Z,4.28
2023-05-04T03:00:09.216Z,4.47
2023-05-04T03:02:11.410Z,3.55
2023-05-04T03:04:12.928Z,4.18
2023-05-04T03:06:14.436Z,4.35
2023-05-04T03:08:16.079Z,4.28
2023-05-04T03:10:17.733Z,4.10
2023-05-04T03:12:19.558Z,4.53
2023-05-04T03:14:21.223Z,4.10
2023-05-04T03:16:22.779Z,4.20
2023-05-04T03:18:24.500Z,3.70
2023-05-04T03:20:26.175Z,4.78
2023-05-04T03:22:27.730Z,4.05
2023-05-04T03:24:29.268Z,4.05
2023-05-04T03:26:30.785Z,3.35
2023-05-04T03:28:32.986Z,3.40
2023-05-04T03:30:36.191Z,3.47
2023-05-04T03:32:37.720Z,3.67
2023-05-04T03:34:39.230Z,3.47
2023-05-04T03:36:40.863Z,4.28
2023-05-04T03:38:42.428Z,3.83
2023-05-04T03:40:43.912Z,4.38
2023-05-04T03:42:45.413Z,4.05
2023-05-04T03:44:47.117Z,4.38
2023-05-04T03:46:48.762Z,4.63
2023-05-04T03:48:50.266Z,4.85
2023-05-04T03:50:51.869Z,3.53
2023-05-04T03:52:53.407Z,4.50
2023-05-04T03:54:54.889Z,4.47
2023-05-04T03:56:56.408Z,3.45
2023-05-04T03:58:57.922Z,4.07
2023-05-04T04:01:00.094Z,4.20
2023-05-04T04:03:02.165Z,4.30
2023-05-04T04:05:04.054Z,4.03
2023-05-04T04:07:05.661Z,3.47
2023-05-04T04:09:07.577Z,4.35
2023-05-04T04:11:09.116Z,3.47
2023-05-04T04:13:10.683Z,4.68
2023-05-04T04:15:12.398Z,3.88
2023-05-04T04:17:14.081Z,3.08
2023-05-04T04:19:15.641Z,3.65
2023-05-04T04:21:17.157Z,4.13
2023-05-04T04:23:19.372Z,3.95
2023-05-04T04:25:21.330Z,4.35
2023-05-04T04:27:22.855Z,3.70
2023-05-04T04:29:24.360Z,3.88
2023-05-04T04:31:26.050Z,3.90
2023-05-04T04:33:27.706Z,3.55
2023-05-04T04:35:29.213Z,3.63
2023-05-04T04:37:30.756Z,3.47
2023-05-04T04:39:32.932Z,3.65
2023-05-04T04:41:34.638Z,4.03
2023-05-04T04:43:36.415Z,4.03
2023-05-04T04:45:38.157Z,4.05
2023-05-04T04:47:40.227Z,4.18
2023-05-04T04:49:41.767Z,4.47
2023-05-04T04:51:44.093Z,4.38
2023-05-04T04:53:45.792Z,4.32
2023-05-04T04:55:47.282Z,5.45
2023-05-04T04:57:49.922Z,4.22
2023-05-04T04:59:53.818Z,3.63
2023-05-04T05:01:58.583Z,4.28
2023-05-04T05:04:00.578Z,4.72
2023-05-04T05:06:04.889Z,4.55
2023-05-04T05:08:06.744Z,4.05
2023-05-04T05:10:10.001Z,4.15
2023-05-04T05:12:16.114Z,4.63
2023-05-04T05:14:23.440Z,3.90
2023-05-04T05:16:26.308Z,4.05
2023-05-04T05:18:29.999Z,4.30
2023-05-04T05:20:32.880Z,4.65
2023-05-04T05:22:35.607Z,4.53
2023-05-04T05:24:39.301Z,4.10
2023-05-04T05:26:44.804Z,5.45
2023-05-04T05:28:47.633Z,4.95
2023-05-04T05:30:52.122Z,4.50
2023-05-04T05:32:57.662Z,4.22
2023-05-04T05:35:01.899Z,5.38
2023-05-04T05:37:07.329Z,5.72
2023-05-04T05:39:12.541Z,4.63
2023-05-04T05:41:19.139Z,6.65
2023-05-04T05:43:20.701Z,5.28
2023-05-04T05:45:22.594Z,4.65
2023-05-04T05:47:24.170Z,4.68
2023-05-04T05:49:25.951Z,5.00
2023-05-04T05:51:27.489Z,4.88
2023-05-04T05:53:29.005Z,4.50
2023-05-04T05:55:30.588Z,4.20
2023-05-04T05:57:32.133Z,4.43
2023-05-04T05:59:33.853Z,4.55
2023-05-04T06:01:35.384Z,4.35
2023-05-04T06:03:36.998Z,4.00
2023-05-04T06:05:38.571Z,3.65
2023-05-04T06:07:40.091Z,3.47
2023-05-04T06:09:41.735Z,3.92
2023-05-04T06:11:43.258Z,3.33
2023-05-04T06:13:44.750Z,3.97
2023-05-04T06:15:53.084Z,3.78
2023-05-04T06:17:54.725Z,2.88
2023-05-04T06:19:56.406Z,3.70
2023-05-04T06:21:57.896Z,4.45
2023-05-04T06:23:59.484Z,3.28
2023-05-04T06:26:01.151Z,3.72
2023-05-04T06:28:03.936Z,3.30
2023-05-04T06:30:07.145Z,3.15
2023-05-04T06:32:10.402Z,3.10
2023-05-04T06:34:24.441Z,4.15
2023-05-04T06:36:37.682Z,3.65
2023-05-04T06:38:43.458Z,2.95
2023-05-04T06:40:49.202Z,3.25
2023-05-04T06:42:53.688Z,3.50
2023-05-04T06:44:59.963Z,3.22
2023-05-04T06:47:04.552Z,3.75
2023-05-04T06:49:10.884Z,4.00
2023-05-04T06:51:15.910Z,4.05
2023-05-04T06:53:21.937Z,3.70
2023-05-04T06:55:28.032Z,3.25
2023-05-04T06:57:34.508Z,3.47
2023-05-04T06:59:39.827Z,4.18
2023-05-04T07:01:50.239Z,3.72
2023-05-04T07:03:55.397Z,4.05
2023-05-04T07:06:02.661Z,4.63
2023-05-04T07:08:08.762Z,4.65
2023-05-04T07:10:14.278Z,3.83
2023-05-04T07:12:19.728Z,4.10
2023-05-04T07:14:21.885Z,3.90
2023-05-04T07:17:09.617Z,3.90
2023-05-04T07:19:11.124Z,3.70
2023-05-04T07:21:26.782Z,4.18
2023-05-04T07:23:29.606Z,4.25
2023-05-04T07:25:31.170Z,4.18
2023-05-04T07:27:34.653Z,4.40
2023-05-04T07:29:36.812Z,3.72
2023-05-04T07:31:38.490Z,3.60
2023-05-04T07:33:40.541Z,3.78
2023-05-04T07:35:42.073Z,3.75
2023-05-04T07:37:43.630Z,3.67
2023-05-04T07:39:45.483Z,3.95
2023-05-04T07:41:48.831Z,4.25
2023-05-04T07:43:51.130Z,3.50
2023-05-04T07:45:53.474Z,3.80
2023-05-04T07:47:55.063Z,4.05
2023-05-04T07:49:56.864Z,4.70
2023-05-04T07:51:58.503Z,4.60
2023-05-04T07:54:00.008Z,4.40
2023-05-04T07:56:08.659Z,3.67
2023-05-04T07:58:11.625Z,3.53
2023-05-04T08:00:14.750Z,3.42
2023-05-04T08:02:16.721Z,4.00
2023-05-04T08:04:18.646Z,4.03
2023-05-04T08:06:20.121Z,3.22
2023-05-04T08:08:21.879Z,3.53
2023-05-04T08:10:23.484Z,3.63
2023-05-04T08:12:26.923Z,3.38
2023-05-04T08:14:28.374Z,3.88
2023-05-04T08:16:29.841Z,3.60
2023-05-04T08:18:31.341Z,3.95
2023-05-04T08:20:32.824Z,3.40
2023-05-04T08:22:35.383Z,3.67
2023-05-04T08:24:37.150Z,2.92
2023-05-04T08:26:38.885Z,3.45
2023-05-04T08:28:40.953Z,3.50
2023-05-04T08:30:42.640Z,3.25
2023-05-04T08:32:53.091Z,3.42
2023-05-04T08:34:54.677Z,2.65
2023-05-04T08:36:56.493Z,2.88
2023-05-04T08:38:58.002Z,3.05
2023-05-04T08:41:06.617Z,2.30
2023-05-04T08:43:08.296Z,3.00
2023-05-04T08:45:10.500Z,3.08
2023-05-04T08:47:12.438Z,3.10
2023-05-04T08:49:14.001Z,2.40
2023-05-04T08:51:16.122Z,2.60
2023-05-04T08:53:19.267Z,2.10
2023-05-04T08:55:20.820Z,2.38
2023-05-04T08:57:26.114Z,3.03
2023-05-04T08:59:28.545Z,2.45
2023-05-04T09:01:30.476Z,2.45
2023-05-04T09:03:32.200Z,2.47
2023-05-04T09:05:34.249Z,2.20
2023-05-04T09:07:36.154Z,1.83
2023-05-04T09:09:37.616Z,2.65
2023-05-04T09:11:39.286Z,2.00
2023-05-04T09:13:42.655Z,1.98
2023-05-04T09:15:54.921Z,2.00
2023-05-04T09:18:03.214Z,2.58
2023-05-04T09:20:05.125Z,2.13
2023-05-04T09:22:17.255Z,2.28
2023-05-04T09:24:28.878Z,2.47
2023-05-04T09:26:31.613Z,1.92
2023-05-04T09:28:38.601Z,1.88
2023-05-04T09:30:40.117Z,1.90
2023-05-04T09:32:49.536Z,1.40
2023-05-04T09:34:52.066Z,1.92
2023-05-04T09:37:03.506Z,1.42
2023-05-04T09:39:14.690Z,1.50
2023-05-04T09:41:16.265Z,1.67
2023-05-04T09:43:18.849Z,1.50
2023-05-04T09:45:20.414Z,1.30
2023-05-04T09:47:22.127Z,1.70
2023-05-04T09:49:49.802Z,1.58
2023-05-04T09:51:51.432Z,1.27
2023-05-04T09:53:53.926Z,1.80
2023-05-04T09:56:03.935Z,1.70
2023-05-04T09:58:07.240Z,1.75
2023-05-04T10:00:11.426Z,1.48
2023-05-04T10:02:22.810Z,1.98
2023-05-04T10:04:25.838Z,1.40
2023-05-04T10:06:29.960Z,1.20
2023-05-04T10:08:32.549Z,1.75
2023-05-04T10:10:34.968Z,1.33
2023-05-04T10:12:36.627Z,0.85
2023-05-04T10:14:38.737Z,1.50
2023-05-04T10:17:00.170Z,1.55
2023-05-04T10:19:15.908Z,1.13
2023-05-04T10:21:26.318Z,1.38
2023-05-04T10:23:49.285Z,1.50
2023-05-04T10:26:09.474Z,1.17
2023-05-04T10:28:23.372Z,1.63
2023-05-04T10:30:24.905Z,1.42
2023-05-04T10:32:26.558Z,1.42
2023-05-04T10:34:32.615Z,1.35
2023-05-04T10:36:38.595Z,1.20
2023-05-04T10:38:41.362Z,1.20
2023-05-04T10:40:42.993Z,1.00
2023-05-04T10:42:44.919Z,1.40
2023-05-04T10:44:55.400Z,1.20
2023-05-04T10:46:59.850Z,1.38
2023-05-04T10:49:01.712Z,1.20
2023-05-04T10:51:04.498Z,1.10
2023-05-04T10:53:06.110Z,1.27
2023-05-04T10:55:09.032Z,1.30
2023-05-04T10:57:17.147Z,1.27
2023-05-04T10:59:20.300Z,1.63
2023-05-04T11:01:22.357Z,1.30
2023-05-04T11:03:25.335Z,1.17
2023-05-04T11:05:28.132Z,1.30
2023-05-04T11:07:34.916Z,1.10
2023-05-04T11:09:39.101Z,1.33
2023-05-04T11:11:41.376Z,1.33
2023-05-04T11:13:47.262Z,1.40
2023-05-04T11:15:50.203Z,1.38
2023-05-04T11:17:53.190Z,1.40
2023-05-04T11:19:54.822Z,1.70
2023-05-04T11:21:56.558Z,1.23
2023-05-04T11:23:58.954Z,1.13
2023-05-04T11:26:09.297Z,1.55
2023-05-04T11:28:11.017Z,1.23
2023-05-04T11:30:16.569Z,1.40
2023-05-04T11:32:18.034Z,1.55
2023-05-04T11:34:20.919Z,1.35
2023-05-04T11:36:24.321Z,1.52
2023-05-04T11:38:26.387Z,1.60
2023-05-04T11:40:27.902Z,1.48
2023-05-04T11:42:29.475Z,1.40
2023-05-04T11:44:31.288Z,1.67
2023-05-04T11:46:34.457Z,1.60
2023-05-04T11:48:36.477Z,1.55
2023-05-04T11:50:38.168Z,1.42
2023-05-04T11:52:41.412Z,1.50
2023-05-04T11:54:42.902Z,1.58
2023-05-04T11:56:44.351Z,1.02
2023-05-04T11:58:46.275Z,0.90
2023-05-04T12:00:49.640Z,1.23
2023-05-04T12:02:55.938Z,1.13
2023-05-04T12:04:57.616Z,0.80
2023-05-04T12:07:01.116Z,0.90
2023-05-04T12:09:07.341Z,1.05
2023-05-04T12:11:12.324Z,0.98
2023-05-04T12:13:20.324Z,1.33
2023-05-04T12:15:28.655Z,1.20
2023-05-04T12:17:39.975Z,0.98
2023-05-04T12:19:51.846Z,1.00
2023-05-04T12:21:54.319Z,0.80
2023-05-04T12:23:57.651Z,0.90
2023-05-04T12:25:59.109Z,0.82
2023-05-04T12:28:00.597Z,1.17
2023-05-04T12:30:02.062Z,0.90
2023-05-04T12:32:03.663Z,1.00
2023-05-04T12:34:05.154Z,0.95
2023-05-04T12:36:07.138Z,0.70
2023-05-04T12:38:08.654Z,0.90
2023-05-04T12:40:27.257Z,1.13
2023-05-04T12:42:29.076Z,0.90
2023-05-04T12:44:31.525Z,0.93
2023-05-04T12:46:33.050Z,1.25
2023-05-04T12:48:34.742Z,0.98
2023-05-04T12:50:36.221Z,1.20
2023-05-04T12:52:39.802Z,1.20
2023-05-04T12:54:41.278Z,1.20
2023-05-04T12:56:43.044Z,0.98
2023-05-04T12:58:44.607Z,1.20
2023-05-04T13:00:46.434Z,1.10
2023-05-04T13:02:48.081Z,1.10
2023-05-04T13:04:49.733Z,1.13
2023-05-04T13:06:51.897Z,1.00
2023-05-04T13:08:53.418Z,0.93
2023-05-04T13:10:55.035Z,1.00
2023-05-04T13:12:56.675Z,1.10
2023-05-04T13:14:58.915Z,1.40
2023-05-04T13:17:00.358Z,1.75
2023-05-04T13:19:02.132Z,1.08
2023-05-04T13:21:03.705Z,1.27
2023-05-04T13:23:05.216Z,0.75
2023-05-04T13:25:07.707Z,0.90
2023-05-04T13:27:09.588Z,0.82
2023-05-04T13:29:11.105Z,1.02
2023-05-04T13:31:12.769Z,1.40
2023-05-04T13:33:27.852Z,1.30
2023-05-04T13:35:30.794Z,1.35
2023-05-04T13:37:32.254Z,1.10
2023-05-04T13:39:39.910Z,1.00
2023-05-04T13:41:41.371Z,1.33
2023-05-04T13:43:42.792Z,1.42
2023-05-04T13:45:44.311Z,1.35
2023-05-04T13:47:46.354Z,1.00
2023-05-04T13:49:49.112Z,1.00
2023-05-04T13:51:50.679Z,1.00
2023-05-04T13:53:52.163Z,1.00
2023-05-04T13:55:53.630Z,1.17
2023-05-04T13:57:55.375Z,1.30
2023-05-04T14:00:05.664Z,1.13
2023-05-04T14:02:08.427Z,1.48
2023-05-04T14:04:10.273Z,1.10
2023-05-04T14:06:11.864Z,1.30
2023-05-04T14:08:14.058Z,1.25
2023-05-04T14:10:15.567Z,1.17
2023-05-04T14:12:19.654Z,1.48
2023-05-04T14:14:22.187Z,1.20
2023-05-04T14:16:23.670Z,1.30
2023-05-04T14:18:25.321Z,1.25
2023-05-04T14:20:26.842Z,1.30
2023-05-04T14:22:28.296Z,1.40
2023-05-04T14:24:29.885Z,1.08
2023-05-04T14:26:31.846Z,1.30
2023-05-04T14:28:33.357Z,1.13
2023-05-04T14:30:34.856Z,1.23
2023-05-04T14:32:36.802Z,1.20
2023-05-04T14:34:38.317Z,1.23
2023-05-04T14:36:39.923Z,1.33
2023-05-04T14:38:43.061Z,1.23
2023-05-04T14:40:44.517Z,1.10
2023-05-04T14:42:46.072Z,1.00
2023-05-04T14:44:47.915Z,1.30
2023-05-04T14:46:49.548Z,1.33
2023-05-04T14:48:51.014Z,1.10
2023-05-04T14:50:55.967Z,1.00
2023-05-04T14:52:57.529Z,1.17
2023-05-04T14:54:59.102Z,1.70
2023-05-04T14:57:00.568Z,1.58
2023-05-04T14:59:02.256Z,1.38
2023-05-04T15:01:03.925Z,1.30
2023-05-04T15:03:05.884Z,1.38
2023-05-04T15:05:09.787Z,1.13
2023-05-04T15:07:14.272Z,1.27
2023-05-04T15:09:15.816Z,1.10
2023-05-04T15:11:19.285Z,1.27
2023-05-04T15:13:20.974Z,1.20
2023-05-04T15:15:22.467Z,1.58
2023-05-04T15:17:24.060Z,1.02
2023-05-04T15:19:25.702Z,1.73
2023-05-04T15:21:27.992Z,1.45
2023-05-04T15:23:29.654Z,1.17
2023-05-04T15:25:31.195Z,1.42
2023-05-04T15:27:32.716Z,2.00
2023-05-04T15:29:34.310Z,1.30
2023-05-04T15:31:35.826Z,1.20
2023-05-04T15:33:37.319Z,1.42
2023-05-04T15:35:38.799Z,1.45
2023-05-04T15:37:40.345Z,1.60
2023-05-04T15:39:41.798Z,1.80
2023-05-04T15:41:43.368Z,1.63
2023-05-04T15:43:44.866Z,1.55
2023-05-04T15:45:46.326Z,1.67
2023-05-04T15:47:47.932Z,1.50
2023-05-04T15:49:49.797Z,1.60
2023-05-04T15:51:53.384Z,1.88
2023-05-04T15:53:54.856Z,1.60
2023-05-04T15:55:56.532Z,1.30
2023-05-04T15:57:58.068Z,1.80
2023-05-04T15:59:59.557Z,1.35
2023-05-04T16:02:01.093Z,2.67
2023-05-04T16:04:02.818Z,3.22
2023-05-04T16:06:05.596Z,4.93
2023-05-04T16:08:07.045Z,2.67
2023-05-04T16:10:09.724Z,7.32
2023-05-04T16:12:11.490Z,5.43
2023-05-04T16:14:13.242Z,3.83
2023-05-04T16:16:14.894Z,7.38
2023-05-04T16:18:16.498Z,3.33
2023-05-04T16:20:18.124Z,3.30
2023-05-04T16:22:19.707Z,2.63
2023-05-04T16:24:21.390Z,1.70
2023-05-04T16:26:22.817Z,1.63
2023-05-04T16:28:24.302Z,1.52
2023-05-04T16:30:32.182Z,1.52
2023-05-04T16:32:33.656Z,1.65
2023-05-04T16:34:35.511Z,1.65
2023-05-04T16:36:37.057Z,1.95
2023-05-04T16:38:38.558Z,1.48
2023-05-04T16:40:41.650Z,1.88
2023-05-04T16:42:43.904Z,1.65
2023-05-04T16:44:45.399Z,1.75
2023-05-04T16:46:47.066Z,1.30
2023-05-04T16:48:48.657Z,1.60
2023-05-04T16:50:50.179Z,1.42
2023-05-04T16:52:51.740Z,1.73
2023-05-04T16:54:53.747Z,2.00
2023-05-04T16:56:55.434Z,1.85
2023-05-04T16:58:57.130Z,1.45
2023-05-04T17:00:58.663Z,1.55
2023-05-04T17:03:00.260Z,1.40
2023-05-04T17:05:02.038Z,1.20
2023-05-04T17:07:04.510Z,1.75
2023-05-04T17:09:06.103Z,1.48
2023-05-04T17:11:07.774Z,1.30
2023-05-04T17:13:09.402Z,1.40
2023-05-04T17:15:11.598Z,1.48
2023-05-04T17:17:13.067Z,1.25
2023-05-04T17:19:14.607Z,1.10
2023-05-04T17:21:16.771Z,1.67
2023-05-04T17:23:18.732Z,1.55
2023-05-04T17:25:21.487Z,1.40
2023-05-04T17:27:23.028Z,1.30
2023-05-04T17:29:24.590Z,1.83
2023-05-04T17:31:26.239Z,1.48
2023-05-04T17:33:28.121Z,1.63
2023-05-04T17:35:29.707Z,1.23
2023-05-04T17:37:31.332Z,1.98
2023-05-04T17:39:32.928Z,1.17
2023-05-04T17:41:34.462Z,1.27
2023-05-04T17:43:36.139Z,1.60
2023-05-04T17:45:37.751Z,1.50
2023-05-04T17:47:39.380Z,1.10
2023-05-04T17:49:40.979Z,1.50
2023-05-04T17:51:42.490Z,1.30
2023-05-04T17:53:44.158Z,1.40
2023-05-04T17:55:45.964Z,1.52
2023-05-04T17:57:47.524Z,2.00
2023-05-04T17:59:49.384Z,1.48
2023-05-04T18:01:51.056Z,1.20
2023-05-04T18:03:52.758Z,1.67
2023-05-04T18:05:54.294Z,1.77
2023-05-04T18:07:55.821Z,1.50
2023-05-04T18:09:57.307Z,1.88
2023-05-04T18:11:58.871Z,2.10
2023-05-04T18:14:00.392Z,2.08
2023-05-04T18:16:01.939Z,2.47
2023-05-04T18:18:03.497Z,3.03
2023-05-04T18:20:08.243Z,2.08
2023-05-04T18:22:10.129Z,2.25
2023-05-04T18:24:12.167Z,1.90
2023-05-04T18:26:22.787Z,1.60
2023-05-04T18:28:24.517Z,1.80
2023-05-04T18:30:26.051Z,2.05
2023-05-04T18:32:27.881Z,1.60
2023-05-04T18:34:29.426Z,1.83
2023-05-04T18:36:31.168Z,2.03
2023-05-04T18:38:34.484Z,1.50
2023-05-04T18:40:35.998Z,1.88
2023-05-04T18:42:37.562Z,1.75
2023-05-04T18:44:39.074Z,2.28
2023-05-04T18:46:40.731Z,1.90
2023-05-04T18:48:42.311Z,1.85
2023-05-04T18:50:50.992Z,2.30
2023-05-04T18:52:54.177Z,1.42
2023-05-04T18:54:55.740Z,1.90
2023-05-04T18:56:58.130Z,1.98
2023-05-04T18:58:59.979Z,1.92
2023-05-04T19:01:01.589Z,1.73
2023-05-04T19:03:03.569Z,2.13
2023-05-04T19:05:05.421Z,1.98
2023-05-04T19:07:06.999Z,2.42
2023-05-04T19:09:08.904Z,2.55
2023-05-04T19:11:10.444Z,1.90
2023-05-04T19:13:13.007Z,2.25
2023-05-04T19:15:14.777Z,2.30
2023-05-04T19:17:17.341Z,2.00
2023-05-04T19:19:18.823Z,2.20
2023-05-04T19:21:20.633Z,1.63
2023-05-04T19:23:22.116Z,3.05
2023-05-04T19:25:34.216Z,2.25
2023-05-04T19:27:36.933Z,1.65
2023-05-04T19:29:38.494Z,2.25
2023-05-04T19:31:40.236Z,2.78
2023-05-04T19:33:48.527Z,2.20
2023-05-04T19:35:50.630Z,2.92
2023-05-04T19:37:52.182Z,3.20
2023-05-04T19:39:54.691Z,2.75
2023-05-04T19:41:56.248Z,2.70
2023-05-04T19:43:58.147Z,3.10
2023-05-04T19:46:02.032Z,2.75
2023-05-04T19:48:04.858Z,3.63
2023-05-04T19:50:11.004Z,2.15
2023-05-04T19:52:12.540Z,2.38
2023-05-04T19:54:14.544Z,2.38
2023-05-04T19:56:16.025Z,2.58
2023-05-04T19:58:17.597Z,3.20
2023-05-04T20:00:19.446Z,2.67
2023-05-04T20:02:21.074Z,2.58
2023-05-04T20:04:22.642Z,2.63
2023-05-04T20:06:24.248Z,2.42
2023-05-04T20:08:26.965Z,2.33
2023-05-04T20:10:28.467Z,1.90
2023-05-04T20:12:30.210Z,2.40
2023-05-04T20:14:31.989Z,2.40
2023-05-04T20:16:33.861Z,2.50
2023-05-04T20:18:35.697Z,2.22
2023-05-04T20:20:37.210Z,2.25
2023-05-04T20:22:38.747Z,2.67
2023-05-04T20:24:41.156Z,2.45
2023-05-04T20:26:42.730Z,2.00
2023-05-04T20:28:44.453Z,2.50
2023-05-04T20:30:46.723Z,2.70
2023-05-04T20:32:48.952Z,2.42
2023-05-04T20:34:50.471Z,3.33
2023-05-04T20:36:51.957Z,2.97
2023-05-04T20:38:53.915Z,2.30
2023-05-04T20:40:55.418Z,3.13
2023-05-04T20:42:56.902Z,3.85
2023-05-04T20:44:58.701Z,3.83
2023-05-04T20:47:00.189Z,4.20
2023-05-04T20:49:02.935Z,3.75
2023-05-04T20:51:14.076Z,3.17
2023-05-04T20:53:16.762Z,3.13
2023-05-04T20:55:18.316Z,3.50
2023-05-04T20:57:19.857Z,4.22
2023-05-04T20:59:21.385Z,3.92
2023-05-04T21:01:23.066Z,3.40
2023-05-04T21:03:24.719Z,3.47
2023-05-04T21:05:26.371Z,3.42
2023-05-04T21:07:27.878Z,3.75
2023-05-04T21:09:29.420Z,3.95
2023-05-04T21:11:30.913Z,4.22
2023-05-04T21:13:32.615Z,3.70
2023-05-04T21:15:34.130Z,3.50
2023-05-04T21:17:35.645Z,3.47
2023-05-04T21:19:37.172Z,3.45
2023-05-04T21:21:41.019Z,3.08
2023-05-04T21:23:42.944Z,3.70
2023-05-04T21:25:44.434Z,3.70
2023-05-04T21:27:45.968Z,3.78
2023-05-04T21:29:47.513Z,4.00
2023-05-04T21:31:49.028Z,3.35
2023-05-04T21:33:51.100Z,3.10
2023-05-04T21:35:52.780Z,3.33
2023-05-04T21:37:54.258Z,3.42
2023-05-04T21:39:55.950Z,3.72
2023-05-04T21:41:57.785Z,3.95
2023-05-04T21:43:59.257Z,4.57
2023-05-04T21:46:00.820Z,4.60
2023-05-04T21:48:03.719Z,3.60
2023-05-04T21:50:06.413Z,3.88
2023-05-04T21:52:08.158Z,4.05
2023-05-04T21:54:09.841Z,5.10
2023-05-04T21:56:11.549Z,3.92
2023-05-04T21:58:13.100Z,3.88
2023-05-04T22:00:17.889Z,3.33
2023-05-04T22:02:19.476Z,3.90
2023-05-04T22:04:21.682Z,3.70
2023-05-04T22:06:24.458Z,3.72
2023-05-04T22:08:27.046Z,3.15
2023-05-04T22:10:28.613Z,3.45
2023-05-04T22:12:30.615Z,3.83
2023-05-04T22:14:32.121Z,4.03
2023-05-04T22:16:33.677Z,4.20
2023-05-04T22:18:35.292Z,3.67
2023-05-04T22:20:37.595Z,4.40
2023-05-04T22:22:39.139Z,4.85
2023-05-04T22:24:40.644Z,4.82
2023-05-04T22:26:42.275Z,4.82
2023-05-04T22:28:43.873Z,6.18
2023-05-04T22:30:45.390Z,7.70
2023-05-04T22:32:47.152Z,6.13
2023-05-04T22:34:49.797Z,6.07
2023-05-04T22:36:51.449Z,6.82
2023-05-04T22:38:53.054Z,5.45
2023-05-04T22:40:54.550Z,6.38
2023-05-04T22:42:56.049Z,5.55
2023-05-04T22:44:57.963Z,5.63
2023-05-04T22:46:59.506Z,5.03
2023-05-04T22:49:01.005Z,5.22
2023-05-04T22:51:03.649Z,5.80
2023-05-04T22:53:05.250Z,5.00
2023-05-04T22:55:07.444Z,5.57
2023-05-04T22:57:09.667Z,5.03
2023-05-04T22:59:11.199Z,5.78
2023-05-04T23:01:13.078Z,5.97
2023-05-04T23:03:14.710Z,5.55
2023-05-04T23:05:16.390Z,6.07
2023-05-04T23:07:17.855Z,6.25
2023-05-04T23:09:19.434Z,5.60
2023-05-04T23:11:22.008Z,5.90
2023-05-04T23:13:24.452Z,6.03
2023-05-04T23:15:26.032Z,4.80
2023-05-04T23:17:27.537Z,6.32
2023-05-04T23:19:30.097Z,4.68
2023-05-04T23:21:31.579Z,5.35
2023-05-04T23:23:33.388Z,5.75
2023-05-04T23:25:34.918Z,5.53
2023-05-04T23:27:37.145Z,4.72
2023-05-04T23:29:38.809Z,5.80
2023-05-04T23:31:40.398Z,5.65
2023-05-04T23:33:42.123Z,5.20
2023-05-04T23:35:43.671Z,4.90
2023-05-04T23:37:45.197Z,4.82
2023-05-04T23:39:47.152Z,4.95
2023-05-04T23:41:49.060Z,4.72
2023-05-04T23:43:50.625Z,4.47
2023-05-04T23:46:02.467Z,4.45
2023-05-04T23:48:04.134Z,4.53
2023-05-04T23:50:06.522Z,4.63
2023-05-04T23:52:08.321Z,4.25
2023-05-04T23:54:09.844Z,4.20
2023-05-04T23:56:13.078Z,3.88
2023-05-04T23:58:14.577Z,4.70
